ADDS METAR Data INFO
IDs: Format: Raw Decoded Include TAF

Data at: 2231 UTC 11 Dec 2017

KOMA 112152Z 34023G38KT 10SM OVC030 06/M01 A3007 RMK AO2 PK WND 32040/2055 SLP190 T00611011
KOMA 112052Z 32027G36KT 10SM OVC032 07/00 A3003 RMK AO2 PK WND 32037/2017 SLP174 T00720000 53021
KOMA 111952Z 33022G33KT 10SM OVC035 08/00 A3000 RMK AO2 PK WND 33037/1854 SLP166 T00830000
KOMA 111852Z 33022G29KT 10SM OVC037 09/M01 A2998 RMK AO2 PK WND 32038/1754 SLP156 T00891006
KOMA 111752Z 32031G38KT 10SM OVC039 09/M01 A2996 RMK AO2 PK WND 32042/1703 SLP151 T00891006 10094 20056 50010
KOMA 111652Z 32023G34KT 10SM OVC045 09/M01 A2996 RMK AO2 PK WND 32039/1624 SLP153 T00891011
KOMA 111552Z 32029G39KT 10SM FEW060 FEW130 09/M03 A2994 RMK AO2 PK WND 32039/1546 SLP144 T00891028
KOMA 111452Z 31022G30KT 10SM FEW120 FEW180 08/M04 A2993 RMK AO2 PK WND 33037/1409 SLP143 T00831044 52009
KOMA 111352Z 31021G30KT 10SM FEW180 07/M07 A2992 RMK AO2 PK WND 30030/1350 SLP138 T00671067
KOMA 111252Z 29015G20KT 10SM SCT180 07/M08 A2991 RMK AO2 SLP134 T00671083
KOMA 111152Z 29011KT 10SM SCT170 06/M08 A2990 RMK AO2 SLP131 T00611083 10061 21006 56024
KOMA 111052Z 03007KT 10SM FEW170 FEW250 03/M07 A2992 RMK AO2 SLP138 T00331072
KOMA 110952Z 15003KT 10SM BKN170 02/M06 A2993 RMK AO2 SLP140 T00221061
KOMA 110852Z 11005KT 10SM BKN170 01/M06 A2998 RMK AO2 SLP155 T00061056 55016
KOMA 110752Z 14006KT 10SM BKN170 01/M05 A2997 RMK AO2 SLP155 T00061050
KOMA 110652Z 14005KT 10SM BKN150 M01/M06 A3000 RMK AO2 SLP163 T10061056
KOMA 110552Z 15004KT 10SM FEW150 01/M05 A3002 RMK AO2 SLP172 T00061050 10056 21017 401221039 56021
KOMA 110452Z 12005KT 10SM FEW150 M01/M06 A3004 RMK AO2 SLP180 T10061056
KOMA 110352Z 14005KT 10SM FEW150 M01/M04 A3006 RMK AO2 SLP187 T10061044
KOMA 110252Z 06003KT 10SM FEW150 M02/M06 A3009 RMK AO2 SLP197 T10171056 56008
KOMA 110152Z 00000KT 10SM FEW250 01/M06 A3009 RMK AO2 SLP197 T00061056
KOMA 110052Z 14003KT 10SM FEW250 04/M04 A3011 RMK AO2 SLP201 T00391044
KOMA 102352Z 00000KT 10SM FEW250 06/M05 A3011 RMK AO2 SLP203 T00561050 10122 20056 51007
KOMA 102252Z 31005KT 10SM FEW250 07/M04 A3010 RMK AO2 SLP199 T00721044
KOMA 102152Z 32011KT 10SM SCT250 11/M04 A3010 RMK AO2 SLP198 T01111039
KOMA 102052Z 29013KT 10SM SCT250 12/M03 A3009 RMK AO2 SLP194 T01171033 55002
KOMA 101952Z 32015G20KT 10SM SCT250 12/M03 A3009 RMK AO2 SLP193 T01171033
KOMA 101852Z 30014KT 10SM SCT250 11/M03 A3009 RMK AO2 SLP196 T01061033
KOMA 101752Z 33013KT 10SM SCT250 09/M03 A3010 RMK AO2 SLP199 T00941033 10094 20028 50005
KOMA 101652Z 33013KT 10SM SCT250 08/M04 A3010 RMK AO2 SLP202 T00781039
KOMA 101552Z 34017KT 10SM SCT250 07/M03 A3010 RMK AO2 SLP200 T00671033
KOMA 101452Z 34008KT 10SM FEW150 BKN250 04/M04 A3008 RMK AO2 SLP195 T00441039 51023
KOMA 101352Z 33013KT 10SM FEW150 BKN250 04/M04 A3006 RMK AO2 SLP189 T00391044
KOMA 101252Z 30010KT 10SM BKN250 03/M05 A3004 RMK AO2 SLP181 T00331050
KOMA 101152Z 30012G17KT 10SM SCT250 04/M05 A3001 RMK AO2 SLP170 T00391050 10039 21039 53004
KOMA 101052Z 30014KT 10SM CLR 03/M06 A3000 RMK AO2 SLP168 T00331056